TAF and METAR

No METAR available for Benina International Airport

TAF for Benina International Airport

TAF HLLB 010500Z 0106/0206 VRB02KT 9999 SCT025 BECMG 0109/0111 27010KT BECMG 0122/0124 VRB02KT BECMG0204/0206 17012KT
Report created 1. apr 07:00

between 1. apr 08:00 - 2. apr 08:00

wind 2 knots from various directions visibility > 10km scattered clouds (~50% cover) at 2500 feet

becoming between 1. apr 11:00 - 1. apr 13:00

wind 10 knots from W (270°)

becoming between 2. apr 00:00 - 1. apr 02:00

wind 2 knots from various directions
Benina International Airport in Libyan Arab Jamahiriya at 132m

Latest 5 airports